sensor_id;sensor_type;location;lat;lon;timestamp;P1;durP1;ratioP1;P2;durP2;ratioP2
10463;SDS011;5279;42.048;24.638;2022-11-20T00:01:15;7.60;;;4.33;;
10463;SDS011;5279;42.048;24.638;2022-11-20T00:03:43;7.87;;;4.57;;
10463;SDS011;5279;42.048;24.638;2022-11-20T00:06:11;2.90;;;1.03;;
10463;SDS011;5279;42.048;24.638;2022-11-20T00:08:39;4.43;;;1.40;;
10463;SDS011;5279;42.048;24.638;2022-11-20T00:11:08;9.23;;;4.37;;
10463;SDS011;5279;42.048;24.638;2022-11-20T00:13:36;5.20;;;3.83;;
10463;SDS011;5279;42.048;24.638;2022-11-20T00:16:05;7.27;;;4.93;;
10463;SDS011;5279;42.048;24.638;2022-11-20T00:18:33;7.20;;;4.77;;
10463;SDS011;5279;42.048;24.638;2022-11-20T00:21:01;5.70;;;3.17;;
10463;SDS011;5279;42.048;24.638;2022-11-20T00:23:28;6.83;;;3.30;;
10463;SDS011;5279;42.048;24.638;2022-11-20T00:25:56;4.53;;;2.50;;
10463;SDS011;5279;42.048;24.638;2022-11-20T00:28:24;2.53;;;1.40;;
10463;SDS011;5279;42.048;24.638;2022-11-20T00:30:51;1.77;;;1.00;;
10463;SDS011;5279;42.048;24.638;2022-11-20T00:33:18;8.03;;;3.30;;
10463;SDS011;5279;42.048;24.638;2022-11-20T00:35:45;3.90;;;2.57;;
10463;SDS011;5279;42.048;24.638;2022-11-20T00:38:12;2.60;;;1.17;;
10463;SDS011;5279;42.048;24.638;2022-11-20T00:40:39;5.03;;;1.20;;
10463;SDS011;5279;42.048;24.638;2022-11-20T00:43:07;4.37;;;1.20;;
10463;SDS011;5279;42.048;24.638;2022-11-20T00:45:35;4.30;;;1.23;;
10463;SDS011;5279;42.048;24.638;2022-11-20T00:48:02;6.27;;;1.10;;
10463;SDS011;5279;42.048;24.638;2022-11-20T00:50:29;5.73;;;2.30;;
10463;SDS011;5279;42.048;24.638;2022-11-20T00:52:56;2.13;;;1.10;;
10463;SDS011;5279;42.048;24.638;2022-11-20T00:55:23;3.33;;;1.30;;
10463;SDS011;5279;42.048;24.638;2022-11-20T00:57:50;2.70;;;1.30;;
10463;SDS011;5279;42.048;24.638;2022-11-20T01:00:17;2.77;;;1.30;;
10463;SDS011;5279;42.048;24.638;2022-11-20T01:02:45;3.17;;;1.23;;
10463;SDS011;5279;42.048;24.638;2022-11-20T01:05:12;2.47;;;1.20;;
10463;SDS011;5279;42.048;24.638;2022-11-20T01:07:39;5.23;;;1.30;;
10463;SDS011;5279;42.048;24.638;2022-11-20T01:10:06;4.37;;;1.07;;
10463;SDS011;5279;42.048;24.638;2022-11-20T01:12:34;1.27;;;1.10;;
10463;SDS011;5279;42.048;24.638;2022-11-20T01:15:01;3.40;;;1.20;;
10463;SDS011;5279;42.048;24.638;2022-11-20T01:17:28;3.43;;;0.87;;
10463;SDS011;5279;42.048;24.638;2022-11-20T01:19:58;3.57;;;1.00;;
10463;SDS011;5279;42.048;24.638;2022-11-20T01:22:25;4.40;;;1.27;;
10463;SDS011;5279;42.048;24.638;2022-11-20T01:24:52;3.93;;;1.00;;
10463;SDS011;5279;42.048;24.638;2022-11-20T01:27:19;2.77;;;1.00;;
10463;SDS011;5279;42.048;24.638;2022-11-20T01:29:46;3.10;;;1.30;;
10463;SDS011;5279;42.048;24.638;2022-11-20T01:32:13;4.33;;;1.33;;
10463;SDS011;5279;42.048;24.638;2022-11-20T01:34:39;4.33;;;1.20;;
10463;SDS011;5279;42.048;24.638;2022-11-20T01:37:08;1.77;;;0.97;;
10463;SDS011;5279;42.048;24.638;2022-11-20T01:39:35;2.83;;;1.10;;
10463;SDS011;5279;42.048;24.638;2022-11-20T01:42:01;1.70;;;0.80;;
10463;SDS011;5279;42.048;24.638;2022-11-20T01:44:50;1.50;;;0.80;;
10463;SDS011;5279;42.048;24.638;2022-11-20T01:47:22;1.30;;;0.80;;
10463;SDS011;5279;42.048;24.638;2022-11-20T01:49:54;5.90;;;0.90;;
10463;SDS011;5279;42.048;24.638;2022-11-20T01:52:27;2.57;;;1.10;;
10463;SDS011;5279;42.048;24.638;2022-11-20T01:55:00;2.13;;;0.90;;
10463;SDS011;5279;42.048;24.638;2022-11-20T01:57:31;2.90;;;0.80;;
10463;SDS011;5279;42.048;24.638;2022-11-20T02:00:00;2.27;;;1.00;;
10463;SDS011;5279;42.048;24.638;2022-11-20T02:02:30;2.10;;;1.00;;
10463;SDS011;5279;42.048;24.638;2022-11-20T02:05:00;1.83;;;0.90;;
10463;SDS011;5279;42.048;24.638;2022-11-20T02:07:37;1.87;;;1.23;;
10463;SDS011;5279;42.048;24.638;2022-11-20T02:10:05;1.70;;;1.07;;
10463;SDS011;5279;42.048;24.638;2022-11-20T02:12:32;4.07;;;1.30;;
10463;SDS011;5279;42.048;24.638;2022-11-20T02:15:16;3.03;;;1.10;;
10463;SDS011;5279;42.048;24.638;2022-11-20T02:17:43;4.23;;;1.27;;
10463;SDS011;5279;42.048;24.638;2022-11-20T02:20:10;2.13;;;1.00;;
10463;SDS011;5279;42.048;24.638;2022-11-20T02:22:41;2.20;;;1.10;;
10463;SDS011;5279;42.048;24.638;2022-11-20T02:25:15;4.93;;;1.20;;
10463;SDS011;5279;42.048;24.638;2022-11-20T02:27:43;1.57;;;1.07;;
10463;SDS011;5279;42.048;24.638;2022-11-20T02:30:11;3.03;;;1.10;;
10463;SDS011;5279;42.048;24.638;2022-11-20T02:32:39;2.10;;;1.00;;
10463;SDS011;5279;42.048;24.638;2022-11-20T02:35:06;2.37;;;1.07;;
10463;SDS011;5279;42.048;24.638;2022-11-20T02:37:36;4.47;;;1.27;;
10463;SDS011;5279;42.048;24.638;2022-11-20T02:40:05;3.73;;;1.30;;
10463;SDS011;5279;42.048;24.638;2022-11-20T02:42:35;2.57;;;1.10;;
10463;SDS011;5279;42.048;24.638;2022-11-20T02:45:02;2.90;;;1.03;;
10463;SDS011;5279;42.048;24.638;2022-11-20T02:47:30;3.30;;;1.30;;
10463;SDS011;5279;42.048;24.638;2022-11-20T02:49:57;2.93;;;0.90;;
10463;SDS011;5279;42.048;24.638;2022-11-20T02:52:24;3.43;;;1.33;;
10463;SDS011;5279;42.048;24.638;2022-11-20T02:54:52;3.87;;;1.30;;
10463;SDS011;5279;42.048;24.638;2022-11-20T02:57:18;1.00;;;0.97;;
10463;SDS011;5279;42.048;24.638;2022-11-20T02:59:47;5.37;;;1.10;;
10463;SDS011;5279;42.048;24.638;2022-11-20T03:02:14;2.70;;;1.00;;
10463;SDS011;5279;42.048;24.638;2022-11-20T03:04:41;1.33;;;1.20;;
10463;SDS011;5279;42.048;24.638;2022-11-20T03:07:08;2.10;;;1.30;;
10463;SDS011;5279;42.048;24.638;2022-11-20T03:09:35;2.53;;;1.00;;
10463;SDS011;5279;42.048;24.638;2022-11-20T03:12:02;3.27;;;1.43;;
10463;SDS011;5279;42.048;24.638;2022-11-20T03:14:29;4.20;;;1.60;;
10463;SDS011;5279;42.048;24.638;2022-11-20T03:16:58;2.37;;;0.80;;
10463;SDS011;5279;42.048;24.638;2022-11-20T03:19:25;2.40;;;1.23;;
10463;SDS011;5279;42.048;24.638;2022-11-20T03:21:51;4.20;;;1.20;;
10463;SDS011;5279;42.048;24.638;2022-11-20T03:24:18;2.17;;;1.00;;
10463;SDS011;5279;42.048;24.638;2022-11-20T03:26:45;1.77;;;1.03;;
10463;SDS011;5279;42.048;24.638;2022-11-20T03:29:12;3.30;;;1.00;;
10463;SDS011;5279;42.048;24.638;2022-11-20T03:31:40;3.37;;;1.10;;
10463;SDS011;5279;42.048;24.638;2022-11-20T03:34:09;2.47;;;1.20;;
10463;SDS011;5279;42.048;24.638;2022-11-20T03:36:37;2.90;;;0.93;;
10463;SDS011;5279;42.048;24.638;2022-11-20T03:39:04;4.17;;;1.43;;
10463;SDS011;5279;42.048;24.638;2022-11-20T03:41:31;2.63;;;0.97;;
10463;SDS011;5279;42.048;24.638;2022-11-20T03:44:04;5.70;;;1.50;;
10463;SDS011;5279;42.048;24.638;2022-11-20T03:46:31;3.80;;;1.30;;
10463;SDS011;5279;42.048;24.638;2022-11-20T03:48:58;2.30;;;0.97;;
10463;SDS011;5279;42.048;24.638;2022-11-20T03:51:27;1.57;;;1.30;;
10463;SDS011;5279;42.048;24.638;2022-11-20T03:53:56;3.77;;;1.30;;
10463;SDS011;5279;42.048;24.638;2022-11-20T03:56:25;4.37;;;1.23;;
10463;SDS011;5279;42.048;24.638;2022-11-20T03:58:53;2.57;;;1.10;;
10463;SDS011;5279;42.048;24.638;2022-11-20T04:01:21;1.53;;;1.00;;
10463;SDS011;5279;42.048;24.638;2022-11-20T04:03:51;3.30;;;1.93;;
10463;SDS011;5279;42.048;24.638;2022-11-20T04:06:19;3.60;;;2.30;;
10463;SDS011;5279;42.048;24.638;2022-11-20T04:08:48;7.57;;;4.60;;
10463;SDS011;5279;42.048;24.638;2022-11-20T04:11:16;8.97;;;5.67;;
10463;SDS011;5279;42.048;24.638;2022-11-20T04:13:45;9.27;;;4.47;;
10463;SDS011;5279;42.048;24.638;2022-11-20T04:16:14;8.17;;;3.87;;
10463;SDS011;5279;42.048;24.638;2022-11-20T04:18:41;7.07;;;4.07;;
10463;SDS011;5279;42.048;24.638;2022-11-20T04:21:08;6.33;;;4.77;;
10463;SDS011;5279;42.048;24.638;2022-11-20T04:23:36;6.57;;;4.40;;
10463;SDS011;5279;42.048;24.638;2022-11-20T04:26:05;8.50;;;4.77;;
10463;SDS011;5279;42.048;24.638;2022-11-20T04:28:33;5.23;;;3.70;;
10463;SDS011;5279;42.048;24.638;2022-11-20T04:31:01;6.30;;;4.00;;
10463;SDS011;5279;42.048;24.638;2022-11-20T04:33:29;5.90;;;3.73;;
10463;SDS011;5279;42.048;24.638;2022-11-20T04:35:59;7.30;;;3.90;;
10463;SDS011;5279;42.048;24.638;2022-11-20T04:38:27;8.60;;;4.90;;
10463;SDS011;5279;42.048;24.638;2022-11-20T04:40:55;7.00;;;4.03;;
10463;SDS011;5279;42.048;24.638;2022-11-20T04:43:24;8.37;;;4.10;;
10463;SDS011;5279;42.048;24.638;2022-11-20T04:45:51;7.03;;;4.70;;
10463;SDS011;5279;42.048;24.638;2022-11-20T04:48:19;4.50;;;4.03;;
10463;SDS011;5279;42.048;24.638;2022-11-20T04:50:46;4.30;;;3.90;;
10463;SDS011;5279;42.048;24.638;2022-11-20T04:53:13;8.30;;;4.27;;
10463;SDS011;5279;42.048;24.638;2022-11-20T04:55:40;5.23;;;4.20;;
10463;SDS011;5279;42.048;24.638;2022-11-20T04:58:07;4.53;;;3.67;;
10463;SDS011;5279;42.048;24.638;2022-11-20T05:00:35;2.80;;;2.50;;
10463;SDS011;5279;42.048;24.638;2022-11-20T05:03:02;7.83;;;3.97;;
10463;SDS011;5279;42.048;24.638;2022-11-20T05:05:29;9.67;;;4.30;;
10463;SDS011;5279;42.048;24.638;2022-11-20T05:07:56;8.53;;;4.87;;
10463;SDS011;5279;42.048;24.638;2022-11-20T05:10:23;6.63;;;4.43;;
10463;SDS011;5279;42.048;24.638;2022-11-20T05:12:50;6.80;;;4.23;;
10463;SDS011;5279;42.048;24.638;2022-11-20T05:15:17;11.97;;;4.10;;
10463;SDS011;5279;42.048;24.638;2022-11-20T05:17:48;8.33;;;4.20;;
10463;SDS011;5279;42.048;24.638;2022-11-20T05:20:15;5.73;;;4.33;;
10463;SDS011;5279;42.048;24.638;2022-11-20T05:22:42;7.70;;;4.10;;
10463;SDS011;5279;42.048;24.638;2022-11-20T05:25:09;5.07;;;4.07;;
10463;SDS011;5279;42.048;24.638;2022-11-20T05:27:37;9.10;;;4.37;;
10463;SDS011;5279;42.048;24.638;2022-11-20T05:30:05;9.63;;;3.60;;
10463;SDS011;5279;42.048;24.638;2022-11-20T05:32:32;8.53;;;4.27;;
10463;SDS011;5279;42.048;24.638;2022-11-20T05:35:01;5.60;;;3.00;;
10463;SDS011;5279;42.048;24.638;2022-11-20T05:37:28;4.30;;;1.70;;
10463;SDS011;5279;42.048;24.638;2022-11-20T05:39:55;4.53;;;2.53;;
10463;SDS011;5279;42.048;24.638;2022-11-20T05:42:21;3.83;;;2.40;;
10463;SDS011;5279;42.048;24.638;2022-11-20T05:44:58;3.93;;;2.03;;
10463;SDS011;5279;42.048;24.638;2022-11-20T05:47:25;2.73;;;1.60;;
10463;SDS011;5279;42.048;24.638;2022-11-20T05:49:52;2.70;;;1.10;;
10463;SDS011;5279;42.048;24.638;2022-11-20T05:52:21;1.73;;;1.00;;
10463;SDS011;5279;42.048;24.638;2022-11-20T05:54:48;3.97;;;1.00;;
10463;SDS011;5279;42.048;24.638;2022-11-20T05:57:15;4.10;;;1.10;;
10463;SDS011;5279;42.048;24.638;2022-11-20T05:59:42;1.03;;;0.60;;
10463;SDS011;5279;42.048;24.638;2022-11-20T06:02:08;2.00;;;0.80;;
10463;SDS011;5279;42.048;24.638;2022-11-20T06:04:35;4.73;;;0.90;;
10463;SDS011;5279;42.048;24.638;2022-11-20T06:07:04;5.63;;;1.20;;
10463;SDS011;5279;42.048;24.638;2022-11-20T06:09:33;5.20;;;1.23;;
10463;SDS011;5279;42.048;24.638;2022-11-20T06:12:00;2.33;;;0.80;;
10463;SDS011;5279;42.048;24.638;2022-11-20T06:14:27;1.93;;;1.00;;
10463;SDS011;5279;42.048;24.638;2022-11-20T06:16:54;1.90;;;0.83;;
10463;SDS011;5279;42.048;24.638;2022-11-20T06:19:21;3.00;;;1.03;;
10463;SDS011;5279;42.048;24.638;2022-11-20T06:21:48;3.40;;;1.03;;
10463;SDS011;5279;42.048;24.638;2022-11-20T06:24:15;1.97;;;0.90;;
10463;SDS011;5279;42.048;24.638;2022-11-20T06:26:43;2.17;;;0.90;;
10463;SDS011;5279;42.048;24.638;2022-11-20T06:29:11;2.00;;;0.90;;
10463;SDS011;5279;42.048;24.638;2022-11-20T06:31:37;1.63;;;0.80;;
10463;SDS011;5279;42.048;24.638;2022-11-20T06:34:05;2.20;;;0.70;;
10463;SDS011;5279;42.048;24.638;2022-11-20T06:36:32;4.20;;;1.30;;
10463;SDS011;5279;42.048;24.638;2022-11-20T06:38:59;2.20;;;0.80;;
10463;SDS011;5279;42.048;24.638;2022-11-20T06:41:26;5.03;;;1.20;;
10463;SDS011;5279;42.048;24.638;2022-11-20T06:43:55;5.55;;;1.15;;
10463;SDS011;5279;42.048;24.638;2022-11-20T06:46:22;5.57;;;1.10;;
10463;SDS011;5279;42.048;24.638;2022-11-20T06:48:49;3.63;;;1.23;;
10463;SDS011;5279;42.048;24.638;2022-11-20T06:51:16;2.47;;;0.83;;
10463;SDS011;5279;42.048;24.638;2022-11-20T06:53:44;2.80;;;1.07;;
10463;SDS011;5279;42.048;24.638;2022-11-20T06:56:10;6.23;;;1.10;;
10463;SDS011;5279;42.048;24.638;2022-11-20T06:58:37;7.17;;;1.10;;
10463;SDS011;5279;42.048;24.638;2022-11-20T07:01:06;3.40;;;0.80;;
10463;SDS011;5279;42.048;24.638;2022-11-20T07:03:36;5.27;;;1.00;;
10463;SDS011;5279;42.048;24.638;2022-11-20T07:06:03;4.57;;;1.20;;
10463;SDS011;5279;42.048;24.638;2022-11-20T07:08:31;3.10;;;1.00;;
10463;SDS011;5279;42.048;24.638;2022-11-20T07:10:58;6.43;;;1.13;;
10463;SDS011;5279;42.048;24.638;2022-11-20T07:13:26;4.70;;;1.07;;
10463;SDS011;5279;42.048;24.638;2022-11-20T07:15:53;3.73;;;1.00;;
10463;SDS011;5279;42.048;24.638;2022-11-20T07:18:22;2.73;;;0.87;;
10463;SDS011;5279;42.048;24.638;2022-11-20T07:20:49;4.07;;;1.23;;
10463;SDS011;5279;42.048;24.638;2022-11-20T07:23:16;3.33;;;1.00;;
10463;SDS011;5279;42.048;24.638;2022-11-20T07:25:43;3.07;;;1.07;;
10463;SDS011;5279;42.048;24.638;2022-11-20T07:28:10;4.20;;;1.00;;
10463;SDS011;5279;42.048;24.638;2022-11-20T07:30:36;3.40;;;1.10;;
10463;SDS011;5279;42.048;24.638;2022-11-20T07:33:04;5.10;;;1.40;;
10463;SDS011;5279;42.048;24.638;2022-11-20T07:35:32;2.33;;;1.20;;
10463;SDS011;5279;42.048;24.638;2022-11-20T07:37:59;6.53;;;1.20;;
10463;SDS011;5279;42.048;24.638;2022-11-20T07:40:26;5.53;;;1.40;;
10463;SDS011;5279;42.048;24.638;2022-11-20T07:42:54;2.67;;;1.00;;
10463;SDS011;5279;42.048;24.638;2022-11-20T07:45:22;5.83;;;1.07;;
10463;SDS011;5279;42.048;24.638;2022-11-20T07:47:50;4.17;;;1.30;;
10463;SDS011;5279;42.048;24.638;2022-11-20T07:50:17;3.07;;;0.90;;
10463;SDS011;5279;42.048;24.638;2022-11-20T07:52:46;3.23;;;0.90;;
10463;SDS011;5279;42.048;24.638;2022-11-20T07:55:13;3.23;;;1.17;;
10463;SDS011;5279;42.048;24.638;2022-11-20T07:57:40;3.87;;;1.77;;
10463;SDS011;5279;42.048;24.638;2022-11-20T08:00:08;5.83;;;2.47;;
10463;SDS011;5279;42.048;24.638;2022-11-20T08:02:37;6.03;;;2.60;;
10463;SDS011;5279;42.048;24.638;2022-11-20T08:05:05;8.20;;;3.13;;
10463;SDS011;5279;42.048;24.638;2022-11-20T08:07:35;4.40;;;1.40;;
10463;SDS011;5279;42.048;24.638;2022-11-20T08:10:04;4.40;;;1.83;;
10463;SDS011;5279;42.048;24.638;2022-11-20T08:12:32;7.07;;;2.87;;
10463;SDS011;5279;42.048;24.638;2022-11-20T08:15:17;5.63;;;2.70;;
10463;SDS011;5279;42.048;24.638;2022-11-20T08:17:44;5.17;;;3.20;;
10463;SDS011;5279;42.048;24.638;2022-11-20T08:20:10;6.60;;;2.57;;
10463;SDS011;5279;42.048;24.638;2022-11-20T08:22:37;6.77;;;2.30;;
10463;SDS011;5279;42.048;24.638;2022-11-20T08:25:06;5.73;;;2.43;;
10463;SDS011;5279;42.048;24.638;2022-11-20T08:27:33;4.93;;;2.27;;
10463;SDS011;5279;42.048;24.638;2022-11-20T08:30:00;8.17;;;1.93;;
10463;SDS011;5279;42.048;24.638;2022-11-20T08:32:27;4.80;;;1.70;;
10463;SDS011;5279;42.048;24.638;2022-11-20T08:34:54;5.47;;;1.70;;
10463;SDS011;5279;42.048;24.638;2022-11-20T08:37:21;4.50;;;1.47;;
10463;SDS011;5279;42.048;24.638;2022-11-20T08:39:48;4.27;;;1.43;;
10463;SDS011;5279;42.048;24.638;2022-11-20T08:42:16;4.10;;;1.47;;
10463;SDS011;5279;42.048;24.638;2022-11-20T08:44:43;3.70;;;1.50;;
10463;SDS011;5279;42.048;24.638;2022-11-20T08:47:10;2.97;;;1.53;;
10463;SDS011;5279;42.048;24.638;2022-11-20T08:49:37;4.87;;;1.70;;
10463;SDS011;5279;42.048;24.638;2022-11-20T08:52:04;4.30;;;1.50;;
10463;SDS011;5279;42.048;24.638;2022-11-20T08:54:30;2.90;;;1.53;;
10463;SDS011;5279;42.048;24.638;2022-11-20T08:56:57;4.70;;;1.80;;
10463;SDS011;5279;42.048;24.638;2022-11-20T08:59:26;4.80;;;1.53;;
10463;SDS011;5279;42.048;24.638;2022-11-20T09:01:52;10.43;;;1.90;;
10463;SDS011;5279;42.048;24.638;2022-11-20T09:04:19;3.57;;;1.63;;
10463;SDS011;5279;42.048;24.638;2022-11-20T09:06:46;6.40;;;1.90;;
10463;SDS011;5279;42.048;24.638;2022-11-20T09:09:16;4.60;;;1.40;;
10463;SDS011;5279;42.048;24.638;2022-11-20T09:11:43;5.83;;;1.70;;
10463;SDS011;5279;42.048;24.638;2022-11-20T09:14:10;6.17;;;1.73;;
10463;SDS011;5279;42.048;24.638;2022-11-20T09:16:38;5.30;;;1.70;;
10463;SDS011;5279;42.048;24.638;2022-11-20T09:19:05;3.63;;;1.43;;
10463;SDS011;5279;42.048;24.638;2022-11-20T09:21:32;3.57;;;1.50;;
10463;SDS011;5279;42.048;24.638;2022-11-20T09:23:58;5.07;;;1.70;;
10463;SDS011;5279;42.048;24.638;2022-11-20T09:26:25;8.07;;;1.90;;
10463;SDS011;5279;42.048;24.638;2022-11-20T09:28:52;4.60;;;1.40;;
10463;SDS011;5279;42.048;24.638;2022-11-20T09:31:21;7.80;;;1.90;;
10463;SDS011;5279;42.048;24.638;2022-11-20T09:33:52;5.10;;;1.77;;
10463;SDS011;5279;42.048;24.638;2022-11-20T09:36:19;4.93;;;1.70;;
10463;SDS011;5279;42.048;24.638;2022-11-20T09:38:46;5.88;;;1.83;;
10463;SDS011;5279;42.048;24.638;2022-11-20T09:41:19;7.32;;;1.85;;
10463;SDS011;5279;42.048;24.638;2022-11-20T09:44:04;3.97;;;1.60;;
10463;SDS011;5279;42.048;24.638;2022-11-20T09:46:42;8.00;;;1.60;;
10463;SDS011;5279;42.048;24.638;2022-11-20T09:49:22;6.68;;;1.75;;
10463;SDS011;5279;42.048;24.638;2022-11-20T09:51:58;13.40;;;1.90;;
10463;SDS011;5279;42.048;24.638;2022-11-20T09:54:27;6.72;;;1.92;;
10463;SDS011;5279;42.048;24.638;2022-11-20T09:56:58;9.48;;;1.77;;
10463;SDS011;5279;42.048;24.638;2022-11-20T09:59:32;8.30;;;1.90;;
10463;SDS011;5279;42.048;24.638;2022-11-20T10:02:02;7.87;;;1.60;;
10463;SDS011;5279;42.048;24.638;2022-11-20T10:04:44;7.80;;;2.10;;
10463;SDS011;5279;42.048;24.638;2022-11-20T10:07:16;9.77;;;1.87;;
10463;SDS011;5279;42.048;24.638;2022-11-20T10:09:50;4.33;;;1.80;;
10463;SDS011;5279;42.048;24.638;2022-11-20T10:12:20;9.50;;;1.90;;
10463;SDS011;5279;42.048;24.638;2022-11-20T10:14:57;4.63;;;1.65;;
10463;SDS011;5279;42.048;24.638;2022-11-20T10:17:37;12.77;;;2.07;;
10463;SDS011;5279;42.048;24.638;2022-11-20T10:20:17;9.03;;;1.80;;
10463;SDS011;5279;42.048;24.638;2022-11-20T10:22:58;11.75;;;2.28;;
10463;SDS011;5279;42.048;24.638;2022-11-20T10:25:43;8.68;;;1.98;;
10463;SDS011;5279;42.048;24.638;2022-11-20T10:28:27;10.65;;;2.40;;
10463;SDS011;5279;42.048;24.638;2022-11-20T10:31:08;7.63;;;1.70;;
10463;SDS011;5279;42.048;24.638;2022-11-20T10:33:39;11.57;;;2.33;;
10463;SDS011;5279;42.048;24.638;2022-11-20T10:36:13;11.18;;;2.10;;
10463;SDS011;5279;42.048;24.638;2022-11-20T10:38:44;12.20;;;2.58;;
10463;SDS011;5279;42.048;24.638;2022-11-20T10:41:17;10.63;;;2.55;;
10463;SDS011;5279;42.048;24.638;2022-11-20T10:43:58;8.60;;;2.13;;
10463;SDS011;5279;42.048;24.638;2022-11-20T10:46:32;12.77;;;5.85;;
10463;SDS011;5279;42.048;24.638;2022-11-20T10:49:04;12.25;;;3.38;;
10463;SDS011;5279;42.048;24.638;2022-11-20T10:51:39;32.42;;;22.45;;
10463;SDS011;5279;42.048;24.638;2022-11-20T10:54:18;18.42;;;3.67;;
10463;SDS011;5279;42.048;24.638;2022-11-20T10:56:52;14.25;;;3.17;;
10463;SDS011;5279;42.048;24.638;2022-11-20T10:59:28;12.13;;;2.33;;
10463;SDS011;5279;42.048;24.638;2022-11-20T11:02:18;11.17;;;2.13;;
10463;SDS011;5279;42.048;24.638;2022-11-20T11:04:46;16.57;;;7.33;;
10463;SDS011;5279;42.048;24.638;2022-11-20T11:07:16;11.60;;;3.63;;
10463;SDS011;5279;42.048;24.638;2022-11-20T11:09:46;11.93;;;3.93;;
10463;SDS011;5279;42.048;24.638;2022-11-20T11:12:14;13.98;;;3.22;;
10463;SDS011;5279;42.048;24.638;2022-11-20T11:14:43;10.77;;;2.80;;
10463;SDS011;5279;42.048;24.638;2022-11-20T11:17:22;7.43;;;3.03;;
10463;SDS011;5279;42.048;24.638;2022-11-20T11:20:05;9.77;;;2.47;;
10463;SDS011;5279;42.048;24.638;2022-11-20T11:22:44;11.97;;;2.50;;
10463;SDS011;5279;42.048;24.638;2022-11-20T11:25:22;6.90;;;2.03;;
10463;SDS011;5279;42.048;24.638;2022-11-20T11:27:52;11.30;;;2.20;;
10463;SDS011;5279;42.048;24.638;2022-11-20T11:30:21;14.63;;;2.73;;
10463;SDS011;5279;42.048;24.638;2022-11-20T11:32:49;13.63;;;3.13;;
10463;SDS011;5279;42.048;24.638;2022-11-20T11:35:20;8.27;;;2.10;;
10463;SDS011;5279;42.048;24.638;2022-11-20T11:37:51;10.27;;;2.07;;
10463;SDS011;5279;42.048;24.638;2022-11-20T11:40:20;9.30;;;1.93;;
10463;SDS011;5279;42.048;24.638;2022-11-20T11:42:50;8.18;;;2.47;;
10463;SDS011;5279;42.048;24.638;2022-11-20T11:45:21;11.10;;;1.88;;
10463;SDS011;5279;42.048;24.638;2022-11-20T11:47:47;7.90;;;1.95;;
10463;SDS011;5279;42.048;24.638;2022-11-20T11:50:16;11.07;;;2.63;;
10463;SDS011;5279;42.048;24.638;2022-11-20T11:52:46;11.00;;;2.08;;
10463;SDS011;5279;42.048;24.638;2022-11-20T11:55:24;11.38;;;2.33;;
10463;SDS011;5279;42.048;24.638;2022-11-20T11:57:57;10.63;;;2.17;;
10463;SDS011;5279;42.048;24.638;2022-11-20T12:00:33;10.00;;;2.50;;
10463;SDS011;5279;42.048;24.638;2022-11-20T12:03:03;10.77;;;2.10;;
10463;SDS011;5279;42.048;24.638;2022-11-20T12:05:36;11.07;;;2.42;;
10463;SDS011;5279;42.048;24.638;2022-11-20T12:08:12;10.40;;;2.63;;
10463;SDS011;5279;42.048;24.638;2022-11-20T12:10:45;9.70;;;2.58;;
10463;SDS011;5279;42.048;24.638;2022-11-20T12:13:26;8.70;;;2.70;;
10463;SDS011;5279;42.048;24.638;2022-11-20T12:16:11;12.10;;;2.38;;
10463;SDS011;5279;42.048;24.638;2022-11-20T12:18:40;9.23;;;2.08;;
10463;SDS011;5279;42.048;24.638;2022-11-20T12:21:15;13.57;;;2.35;;
10463;SDS011;5279;42.048;24.638;2022-11-20T12:23:53;10.77;;;2.40;;
10463;SDS011;5279;42.048;24.638;2022-11-20T12:26:37;12.40;;;2.38;;
10463;SDS011;5279;42.048;24.638;2022-11-20T12:29:13;10.63;;;2.35;;
10463;SDS011;5279;42.048;24.638;2022-11-20T12:31:52;9.03;;;1.90;;
10463;SDS011;5279;42.048;24.638;2022-11-20T12:34:43;8.52;;;2.15;;
10463;SDS011;5279;42.048;24.638;2022-11-20T12:37:22;9.60;;;2.30;;
10463;SDS011;5279;42.048;24.638;2022-11-20T12:40:02;13.00;;;2.30;;
10463;SDS011;5279;42.048;24.638;2022-11-20T12:42:46;12.37;;;2.43;;
10463;SDS011;5279;42.048;24.638;2022-11-20T12:45:46;8.80;;;2.07;;
10463;SDS011;5279;42.048;24.638;2022-11-20T12:51:45;9.30;;;2.43;;
10463;SDS011;5279;42.048;24.638;2022-11-20T12:54:27;7.30;;;2.27;;
10463;SDS011;5279;42.048;24.638;2022-11-20T12:57:15;11.60;;;2.20;;
10463;SDS011;5279;42.048;24.638;2022-11-20T12:59:57;8.07;;;2.27;;
10463;SDS011;5279;42.048;24.638;2022-11-20T13:02:34;9.70;;;1.70;;
10463;SDS011;5279;42.048;24.638;2022-11-20T13:05:18;8.93;;;2.07;;
10463;SDS011;5279;42.048;24.638;2022-11-20T13:07:48;11.63;;;2.30;;
10463;SDS011;5279;42.048;24.638;2022-11-20T13:10:19;12.23;;;2.50;;
10463;SDS011;5279;42.048;24.638;2022-11-20T13:12:56;9.70;;;2.90;;
10463;SDS011;5279;42.048;24.638;2022-11-20T13:15:31;11.90;;;2.23;;
10463;SDS011;5279;42.048;24.638;2022-11-20T13:18:07;8.73;;;2.30;;
10463;SDS011;5279;42.048;24.638;2022-11-20T13:20:36;9.90;;;2.20;;
10463;SDS011;5279;42.048;24.638;2022-11-20T13:23:08;11.47;;;2.50;;
10463;SDS011;5279;42.048;24.638;2022-11-20T13:25:36;11.27;;;2.60;;
10463;SDS011;5279;42.048;24.638;2022-11-20T13:30:55;8.70;;;1.97;;
10463;SDS011;5279;42.048;24.638;2022-11-20T13:33:23;8.50;;;2.27;;
10463;SDS011;5279;42.048;24.638;2022-11-20T13:35:57;11.30;;;2.40;;
10463;SDS011;5279;42.048;24.638;2022-11-20T13:38:26;9.47;;;2.17;;
10463;SDS011;5279;42.048;24.638;2022-11-20T13:40:54;13.13;;;2.57;;
10463;SDS011;5279;42.048;24.638;2022-11-20T13:43:23;8.87;;;2.27;;
10463;SDS011;5279;42.048;24.638;2022-11-20T13:46:01;11.73;;;2.60;;
10463;SDS011;5279;42.048;24.638;2022-11-20T13:48:30;10.80;;;2.73;;
10463;SDS011;5279;42.048;24.638;2022-11-20T13:51:03;10.10;;;2.10;;
10463;SDS011;5279;42.048;24.638;2022-11-20T13:53:46;8.57;;;2.27;;
10463;SDS011;5279;42.048;24.638;2022-11-20T13:56:24;11.73;;;2.30;;
10463;SDS011;5279;42.048;24.638;2022-11-20T13:59:09;8.77;;;1.80;;
10463;SDS011;5279;42.048;24.638;2022-11-20T14:01:48;5.27;;;1.67;;
10463;SDS011;5279;42.048;24.638;2022-11-20T14:04:17;6.27;;;1.20;;
10463;SDS011;5279;42.048;24.638;2022-11-20T14:06:50;4.97;;;1.40;;
10463;SDS011;5279;42.048;24.638;2022-11-20T14:09:25;2.87;;;0.87;;
10463;SDS011;5279;42.048;24.638;2022-11-20T14:11:53;5.03;;;1.13;;
10463;SDS011;5279;42.048;24.638;2022-11-20T14:14:22;2.40;;;0.63;;
10463;SDS011;5279;42.048;24.638;2022-11-20T14:16:50;5.47;;;0.97;;
10463;SDS011;5279;42.048;24.638;2022-11-20T14:19:27;2.33;;;0.70;;
10463;SDS011;5279;42.048;24.638;2022-11-20T14:22:10;2.23;;;0.50;;
10463;SDS011;5279;42.048;24.638;2022-11-20T14:24:44;0.93;;;0.50;;
10463;SDS011;5279;42.048;24.638;2022-11-20T14:27:15;0.60;;;0.50;;
10463;SDS011;5279;42.048;24.638;2022-11-20T14:29:46;2.37;;;0.83;;
10463;SDS011;5279;42.048;24.638;2022-11-20T14:32:16;2.90;;;0.90;;
10463;SDS011;5279;42.048;24.638;2022-11-20T14:34:45;3.97;;;1.00;;
10463;SDS011;5279;42.048;24.638;2022-11-20T14:37:17;4.33;;;1.07;;
10463;SDS011;5279;42.048;24.638;2022-11-20T14:39:50;5.47;;;1.30;;
10463;SDS011;5279;42.048;24.638;2022-11-20T14:42:19;7.90;;;1.33;;
10463;SDS011;5279;42.048;24.638;2022-11-20T14:44:49;5.30;;;1.10;;
10463;SDS011;5279;42.048;24.638;2022-11-20T14:47:18;9.87;;;1.47;;
10463;SDS011;5279;42.048;24.638;2022-11-20T14:49:48;4.37;;;1.07;;
10463;SDS011;5279;42.048;24.638;2022-11-20T14:52:16;5.37;;;1.30;;
10463;SDS011;5279;42.048;24.638;2022-11-20T14:54:45;3.10;;;1.17;;
10463;SDS011;5279;42.048;24.638;2022-11-20T14:57:21;11.07;;;1.73;;
10463;SDS011;5279;42.048;24.638;2022-11-20T14:59:51;9.17;;;1.77;;
10463;SDS011;5279;42.048;24.638;2022-11-20T15:02:29;4.13;;;1.60;;
10463;SDS011;5279;42.048;24.638;2022-11-20T15:04:57;5.70;;;1.67;;
10463;SDS011;5279;42.048;24.638;2022-11-20T15:07:27;4.93;;;1.60;;
10463;SDS011;5279;42.048;24.638;2022-11-20T15:09:59;5.20;;;1.67;;